sensor_id;sensor_type;location;lat;lon;timestamp;P1;durP1;ratioP1;P2;durP2;ratioP2
77262;SDS011;66373;52.334;4.806;2023-09-12T00:01:11;7.88;;;7.07;;
77262;SDS011;66373;52.334;4.806;2023-09-12T00:03:38;10.80;;;7.47;;
77262;SDS011;66373;52.334;4.806;2023-09-12T00:06:07;9.45;;;7.82;;
77262;SDS011;66373;52.334;4.806;2023-09-12T00:08:34;8.35;;;7.38;;
77262;SDS011;66373;52.334;4.806;2023-09-12T00:11:01;8.75;;;7.40;;
77262;SDS011;66373;52.334;4.806;2023-09-12T00:13:29;9.38;;;7.45;;
77262;SDS011;66373;52.334;4.806;2023-09-12T00:15:57;10.13;;;7.88;;
77262;SDS011;66373;52.334;4.806;2023-09-12T00:18:25;9.20;;;7.45;;
77262;SDS011;66373;52.334;4.806;2023-09-12T00:20:52;9.05;;;7.75;;
77262;SDS011;66373;52.334;4.806;2023-09-12T00:23:21;8.45;;;7.07;;
77262;SDS011;66373;52.334;4.806;2023-09-12T00:25:49;9.70;;;7.55;;
77262;SDS011;66373;52.334;4.806;2023-09-12T00:28:17;8.65;;;7.32;;
77262;SDS011;66373;52.334;4.806;2023-09-12T00:30:44;9.38;;;7.75;;
77262;SDS011;66373;52.334;4.806;2023-09-12T00:33:23;7.95;;;7.13;;
77262;SDS011;66373;52.334;4.806;2023-09-12T00:35:51;11.40;;;8.02;;
77262;SDS011;66373;52.334;4.806;2023-09-12T00:38:18;8.70;;;7.40;;
77262;SDS011;66373;52.334;4.806;2023-09-12T00:40:47;10.65;;;7.68;;
77262;SDS011;66373;52.334;4.806;2023-09-12T00:43:14;8.68;;;7.65;;
77262;SDS011;66373;52.334;4.806;2023-09-12T00:45:41;9.95;;;7.63;;
77262;SDS011;66373;52.334;4.806;2023-09-12T00:48:09;11.52;;;8.52;;
77262;SDS011;66373;52.334;4.806;2023-09-12T00:50:37;8.68;;;7.78;;
77262;SDS011;66373;52.334;4.806;2023-09-12T00:53:06;7.95;;;7.15;;
77262;SDS011;66373;52.334;4.806;2023-09-12T00:55:34;9.55;;;7.53;;
77262;SDS011;66373;52.334;4.806;2023-09-12T00:58:08;7.30;;;6.57;;
77262;SDS011;66373;52.334;4.806;2023-09-12T01:00:35;9.18;;;7.25;;
77262;SDS011;66373;52.334;4.806;2023-09-12T01:03:03;8.25;;;7.45;;
77262;SDS011;66373;52.334;4.806;2023-09-12T01:05:31;7.18;;;6.47;;
77262;SDS011;66373;52.334;4.806;2023-09-12T01:07:59;7.57;;;6.82;;
77262;SDS011;66373;52.334;4.806;2023-09-12T01:10:26;9.88;;;7.13;;
77262;SDS011;66373;52.334;4.806;2023-09-12T01:12:55;7.13;;;6.40;;
77262;SDS011;66373;52.334;4.806;2023-09-12T01:15:24;7.95;;;6.53;;
77262;SDS011;66373;52.334;4.806;2023-09-12T01:17:51;8.80;;;6.85;;
77262;SDS011;66373;52.334;4.806;2023-09-12T01:20:19;8.40;;;6.78;;
77262;SDS011;66373;52.334;4.806;2023-09-12T01:22:54;7.93;;;6.60;;
77262;SDS011;66373;52.334;4.806;2023-09-12T01:28:34;11.57;;;5.97;;
77262;SDS011;66373;52.334;4.806;2023-09-12T01:31:02;7.55;;;6.00;;
77262;SDS011;66373;52.334;4.806;2023-09-12T01:33:30;7.35;;;6.60;;
77262;SDS011;66373;52.334;4.806;2023-09-12T01:35:57;7.65;;;6.25;;
77262;SDS011;66373;52.334;4.806;2023-09-12T01:38:24;8.57;;;6.47;;
77262;SDS011;66373;52.334;4.806;2023-09-12T01:40:53;9.57;;;6.50;;
77262;SDS011;66373;52.334;4.806;2023-09-12T01:43:23;8.45;;;6.10;;
77262;SDS011;66373;52.334;4.806;2023-09-12T01:45:55;7.75;;;6.38;;
77262;SDS011;66373;52.334;4.806;2023-09-12T01:48:26;9.10;;;7.05;;
77262;SDS011;66373;52.334;4.806;2023-09-12T01:51:00;6.93;;;6.22;;
77262;SDS011;66373;52.334;4.806;2023-09-12T01:53:28;7.75;;;6.60;;
77262;SDS011;66373;52.334;4.806;2023-09-12T01:55:57;7.72;;;6.68;;
77262;SDS011;66373;52.334;4.806;2023-09-12T01:58:25;6.90;;;6.25;;
77262;SDS011;66373;52.334;4.806;2023-09-12T02:00:52;8.20;;;5.80;;
77262;SDS011;66373;52.334;4.806;2023-09-12T02:03:22;7.10;;;6.40;;
77262;SDS011;66373;52.334;4.806;2023-09-12T02:05:50;7.75;;;6.28;;
77262;SDS011;66373;52.334;4.806;2023-09-12T02:08:17;8.00;;;6.10;;
77262;SDS011;66373;52.334;4.806;2023-09-12T02:10:46;9.13;;;5.93;;
77262;SDS011;66373;52.334;4.806;2023-09-12T02:13:13;7.38;;;6.07;;
77262;SDS011;66373;52.334;4.806;2023-09-12T02:15:40;6.32;;;5.72;;
77262;SDS011;66373;52.334;4.806;2023-09-12T02:18:07;8.32;;;5.90;;
77262;SDS011;66373;52.334;4.806;2023-09-12T02:20:39;8.50;;;6.53;;
77262;SDS011;66373;52.334;4.806;2023-09-12T02:23:11;7.38;;;6.20;;
77262;SDS011;66373;52.334;4.806;2023-09-12T02:25:38;7.32;;;6.18;;
77262;SDS011;66373;52.334;4.806;2023-09-12T02:28:05;8.10;;;6.03;;
77262;SDS011;66373;52.334;4.806;2023-09-12T02:30:32;6.57;;;5.75;;
77262;SDS011;66373;52.334;4.806;2023-09-12T02:32:59;10.00;;;5.85;;
77262;SDS011;66373;52.334;4.806;2023-09-12T02:35:27;6.35;;;5.68;;
77262;SDS011;66373;52.334;4.806;2023-09-12T02:37:56;9.75;;;5.88;;
77262;SDS011;66373;52.334;4.806;2023-09-12T02:40:23;6.57;;;5.95;;
77262;SDS011;66373;52.334;4.806;2023-09-12T02:42:51;7.22;;;5.97;;
77262;SDS011;66373;52.334;4.806;2023-09-12T02:45:19;7.53;;;5.90;;
77262;SDS011;66373;52.334;4.806;2023-09-12T02:47:46;7.88;;;5.82;;
77262;SDS011;66373;52.334;4.806;2023-09-12T02:50:14;6.35;;;5.75;;
77262;SDS011;66373;52.334;4.806;2023-09-12T02:52:42;6.20;;;5.60;;
77262;SDS011;66373;52.334;4.806;2023-09-12T02:55:10;6.38;;;5.57;;
77262;SDS011;66373;52.334;4.806;2023-09-12T02:57:37;9.75;;;5.82;;
77262;SDS011;66373;52.334;4.806;2023-09-12T03:00:07;6.05;;;5.10;;
77262;SDS011;66373;52.334;4.806;2023-09-12T03:02:35;9.95;;;5.40;;
77262;SDS011;66373;52.334;4.806;2023-09-12T03:05:02;6.32;;;5.47;;
77262;SDS011;66373;52.334;4.806;2023-09-12T03:07:30;5.68;;;5.07;;
77262;SDS011;66373;52.334;4.806;2023-09-12T03:09:58;7.80;;;5.82;;
77262;SDS011;66373;52.334;4.806;2023-09-12T03:12:26;6.20;;;5.60;;
77262;SDS011;66373;52.334;4.806;2023-09-12T03:14:54;7.30;;;5.95;;
77262;SDS011;66373;52.334;4.806;2023-09-12T03:17:22;7.28;;;5.40;;
77262;SDS011;66373;52.334;4.806;2023-09-12T03:19:50;5.78;;;5.10;;
77262;SDS011;66373;52.334;4.806;2023-09-12T03:22:17;6.03;;;5.43;;
77262;SDS011;66373;52.334;4.806;2023-09-12T03:24:44;5.53;;;4.85;;
77262;SDS011;66373;52.334;4.806;2023-09-12T03:27:11;8.50;;;5.50;;
77262;SDS011;66373;52.334;4.806;2023-09-12T03:29:40;6.75;;;5.00;;
77262;SDS011;66373;52.334;4.806;2023-09-12T03:32:07;6.57;;;5.03;;
77262;SDS011;66373;52.334;4.806;2023-09-12T03:34:34;7.05;;;5.85;;
77262;SDS011;66373;52.334;4.806;2023-09-12T03:37:01;5.75;;;5.18;;
77262;SDS011;66373;52.334;4.806;2023-09-12T03:39:30;7.13;;;5.03;;
77262;SDS011;66373;52.334;4.806;2023-09-12T03:41:57;6.20;;;5.40;;
77262;SDS011;66373;52.334;4.806;2023-09-12T03:44:24;6.00;;;5.13;;
77262;SDS011;66373;52.334;4.806;2023-09-12T03:46:53;6.22;;;4.55;;
77262;SDS011;66373;52.334;4.806;2023-09-12T03:49:20;8.38;;;5.53;;
77262;SDS011;66373;52.334;4.806;2023-09-12T03:51:47;5.07;;;4.40;;
77262;SDS011;66373;52.334;4.806;2023-09-12T03:54:14;6.55;;;5.18;;
77262;SDS011;66373;52.334;4.806;2023-09-12T03:56:41;5.63;;;4.63;;
77262;SDS011;66373;52.334;4.806;2023-09-12T03:59:08;7.38;;;5.18;;
77262;SDS011;66373;52.334;4.806;2023-09-12T04:01:36;5.68;;;5.10;;
77262;SDS011;66373;52.334;4.806;2023-09-12T04:04:04;6.68;;;4.78;;
77262;SDS011;66373;52.334;4.806;2023-09-12T04:06:31;5.15;;;4.63;;
77262;SDS011;66373;52.334;4.806;2023-09-12T04:08:59;7.47;;;5.00;;
77262;SDS011;66373;52.334;4.806;2023-09-12T04:11:26;5.05;;;4.55;;
77262;SDS011;66373;52.334;4.806;2023-09-12T04:13:53;5.85;;;4.65;;
77262;SDS011;66373;52.334;4.806;2023-09-12T04:16:20;7.85;;;4.93;;
77262;SDS011;66373;52.334;4.806;2023-09-12T04:18:47;8.88;;;4.85;;
77262;SDS011;66373;52.334;4.806;2023-09-12T04:21:15;7.18;;;4.22;;
77262;SDS011;66373;52.334;4.806;2023-09-12T04:23:42;5.00;;;4.40;;
77262;SDS011;66373;52.334;4.806;2023-09-12T04:26:10;5.20;;;4.07;;
77262;SDS011;66373;52.334;4.806;2023-09-12T04:28:37;4.72;;;4.32;;
77262;SDS011;66373;52.334;4.806;2023-09-12T04:31:05;7.68;;;4.50;;
77262;SDS011;66373;52.334;4.806;2023-09-12T04:33:32;4.60;;;4.20;;
77262;SDS011;66373;52.334;4.806;2023-09-12T04:36:00;6.50;;;5.18;;
77262;SDS011;66373;52.334;4.806;2023-09-12T04:38:30;5.28;;;4.43;;
77262;SDS011;66373;52.334;4.806;2023-09-12T04:40:59;7.97;;;4.47;;
77262;SDS011;66373;52.334;4.806;2023-09-12T04:43:30;4.90;;;4.40;;
77262;SDS011;66373;52.334;4.806;2023-09-12T04:45:59;5.40;;;4.22;;
77262;SDS011;66373;52.334;4.806;2023-09-12T04:48:27;4.88;;;4.20;;
77262;SDS011;66373;52.334;4.806;2023-09-12T04:50:55;7.93;;;4.03;;
77262;SDS011;66373;52.334;4.806;2023-09-12T04:53:22;9.05;;;4.60;;
77262;SDS011;66373;52.334;4.806;2023-09-12T04:55:53;7.82;;;4.65;;
77262;SDS011;66373;52.334;4.806;2023-09-12T04:58:20;5.15;;;4.30;;
77262;SDS011;66373;52.334;4.806;2023-09-12T05:00:47;6.38;;;4.57;;
77262;SDS011;66373;52.334;4.806;2023-09-12T05:03:14;5.10;;;3.95;;
77262;SDS011;66373;52.334;4.806;2023-09-12T05:05:42;7.72;;;4.53;;
77262;SDS011;66373;52.334;4.806;2023-09-12T05:08:11;5.22;;;3.92;;
77262;SDS011;66373;52.334;4.806;2023-09-12T05:10:38;4.28;;;3.88;;
77262;SDS011;66373;52.334;4.806;2023-09-12T05:13:07;4.60;;;4.20;;
77262;SDS011;66373;52.334;4.806;2023-09-12T05:15:35;4.93;;;3.92;;
77262;SDS011;66373;52.334;4.806;2023-09-12T05:18:05;4.95;;;4.15;;
77262;SDS011;66373;52.334;4.806;2023-09-12T05:20:33;4.68;;;3.85;;
77262;SDS011;66373;52.334;4.806;2023-09-12T05:23:00;4.03;;;3.63;;
77262;SDS011;66373;52.334;4.806;2023-09-12T05:25:27;4.40;;;4.00;;
77262;SDS011;66373;52.334;4.806;2023-09-12T05:27:56;5.30;;;4.05;;
77262;SDS011;66373;52.334;4.806;2023-09-12T05:30:24;7.97;;;4.55;;
77262;SDS011;66373;52.334;4.806;2023-09-12T05:32:52;6.15;;;3.88;;
77262;SDS011;66373;52.334;4.806;2023-09-12T05:35:19;8.43;;;4.70;;
77262;SDS011;66373;52.334;4.806;2023-09-12T05:37:46;8.30;;;4.20;;
77262;SDS011;66373;52.334;4.806;2023-09-12T05:40:16;8.38;;;4.35;;
77262;SDS011;66373;52.334;4.806;2023-09-12T05:42:43;8.77;;;4.15;;
77262;SDS011;66373;52.334;4.806;2023-09-12T05:45:12;5.95;;;3.97;;
77262;SDS011;66373;52.334;4.806;2023-09-12T05:47:40;7.65;;;4.32;;
77262;SDS011;66373;52.334;4.806;2023-09-12T05:50:09;6.60;;;4.30;;
77262;SDS011;66373;52.334;4.806;2023-09-12T05:52:37;9.90;;;4.55;;
77262;SDS011;66373;52.334;4.806;2023-09-12T05:55:05;6.00;;;4.20;;
77262;SDS011;66373;52.334;4.806;2023-09-12T05:57:33;7.57;;;4.13;;
77262;SDS011;66373;52.334;4.806;2023-09-12T06:00:00;5.82;;;4.22;;
77262;SDS011;66373;52.334;4.806;2023-09-12T06:02:37;7.60;;;4.18;;
77262;SDS011;66373;52.334;4.806;2023-09-12T06:05:06;8.88;;;4.00;;
77262;SDS011;66373;52.334;4.806;2023-09-12T06:07:34;4.85;;;3.97;;
77262;SDS011;66373;52.334;4.806;2023-09-12T06:10:02;4.80;;;3.53;;
77262;SDS011;66373;52.334;4.806;2023-09-12T06:12:29;10.40;;;4.05;;
77262;SDS011;66373;52.334;4.806;2023-09-12T06:14:58;8.98;;;4.20;;
77262;SDS011;66373;52.334;4.806;2023-09-12T06:17:25;4.65;;;3.60;;
77262;SDS011;66373;52.334;4.806;2023-09-12T06:19:54;6.78;;;3.90;;
77262;SDS011;66373;52.334;4.806;2023-09-12T06:22:22;4.18;;;3.72;;
77262;SDS011;66373;52.334;4.806;2023-09-12T06:24:50;4.10;;;3.70;;
77262;SDS011;66373;52.334;4.806;2023-09-12T06:27:17;4.18;;;3.60;;
77262;SDS011;66373;52.334;4.806;2023-09-12T06:29:45;4.13;;;3.60;;
77262;SDS011;66373;52.334;4.806;2023-09-12T06:32:13;4.45;;;4.03;;
77262;SDS011;66373;52.334;4.806;2023-09-12T06:34:40;3.63;;;3.33;;
77262;SDS011;66373;52.334;4.806;2023-09-12T06:37:07;5.30;;;3.72;;
77262;SDS011;66373;52.334;4.806;2023-09-12T06:39:36;5.82;;;4.03;;
77262;SDS011;66373;52.334;4.806;2023-09-12T06:42:03;4.20;;;3.63;;
77262;SDS011;66373;52.334;4.806;2023-09-12T06:44:32;3.70;;;3.40;;
77262;SDS011;66373;52.334;4.806;2023-09-12T06:47:00;5.75;;;4.10;;
77262;SDS011;66373;52.334;4.806;2023-09-12T06:49:27;6.60;;;3.75;;
77262;SDS011;66373;52.334;4.806;2023-09-12T06:51:57;5.03;;;3.78;;
77262;SDS011;66373;52.334;4.806;2023-09-12T06:54:24;7.18;;;3.92;;
77262;SDS011;66373;52.334;4.806;2023-09-12T06:56:53;4.50;;;4.10;;
77262;SDS011;66373;52.334;4.806;2023-09-12T06:59:20;4.57;;;3.90;;
77262;SDS011;66373;52.334;4.806;2023-09-12T07:01:47;5.20;;;4.10;;
77262;SDS011;66373;52.334;4.806;2023-09-12T07:04:14;4.43;;;4.03;;
77262;SDS011;66373;52.334;4.806;2023-09-12T07:06:42;4.68;;;4.15;;
77262;SDS011;66373;52.334;4.806;2023-09-12T07:09:09;5.25;;;4.00;;
77262;SDS011;66373;52.334;4.806;2023-09-12T07:11:39;6.72;;;4.40;;
77262;SDS011;66373;52.334;4.806;2023-09-12T07:14:08;9.15;;;4.90;;
77262;SDS011;66373;52.334;4.806;2023-09-12T07:16:35;9.77;;;4.47;;
77262;SDS011;66373;52.334;4.806;2023-09-12T07:19:02;6.03;;;4.10;;
77262;SDS011;66373;52.334;4.806;2023-09-12T07:21:30;9.68;;;4.38;;
77262;SDS011;66373;52.334;4.806;2023-09-12T07:23:58;8.93;;;4.53;;
77262;SDS011;66373;52.334;4.806;2023-09-12T07:26:25;9.02;;;5.28;;
77262;SDS011;66373;52.334;4.806;2023-09-12T07:28:53;5.68;;;4.60;;
77262;SDS011;66373;52.334;4.806;2023-09-12T07:31:22;7.80;;;5.05;;
77262;SDS011;66373;52.334;4.806;2023-09-12T07:33:52;7.10;;;4.78;;
77262;SDS011;66373;52.334;4.806;2023-09-12T07:36:19;9.02;;;4.82;;
77262;SDS011;66373;52.334;4.806;2023-09-12T07:38:47;9.48;;;4.75;;
77262;SDS011;66373;52.334;4.806;2023-09-12T07:41:15;7.10;;;4.93;;
77262;SDS011;66373;52.334;4.806;2023-09-12T07:43:42;5.32;;;4.53;;
77262;SDS011;66373;52.334;4.806;2023-09-12T07:46:09;7.00;;;5.57;;
77262;SDS011;66373;52.334;4.806;2023-09-12T07:48:39;9.38;;;6.07;;
77262;SDS011;66373;52.334;4.806;2023-09-12T07:51:13;9.40;;;5.95;;
77262;SDS011;66373;52.334;4.806;2023-09-12T07:53:43;7.85;;;6.32;;
77262;SDS011;66373;52.334;4.806;2023-09-12T07:56:10;7.43;;;6.15;;
77262;SDS011;66373;52.334;4.806;2023-09-12T07:58:38;10.65;;;7.20;;
77262;SDS011;66373;52.334;4.806;2023-09-12T08:01:06;11.75;;;7.72;;
77262;SDS011;66373;52.334;4.806;2023-09-12T08:03:35;13.40;;;7.45;;
77262;SDS011;66373;52.334;4.806;2023-09-12T08:06:05;14.80;;;7.95;;
77262;SDS011;66373;52.334;4.806;2023-09-12T08:08:32;13.55;;;8.40;;
77262;SDS011;66373;52.334;4.806;2023-09-12T08:11:00;13.27;;;8.15;;
77262;SDS011;66373;52.334;4.806;2023-09-12T08:13:28;11.55;;;8.13;;
77262;SDS011;66373;52.334;4.806;2023-09-12T08:15:56;13.75;;;8.18;;
77262;SDS011;66373;52.334;4.806;2023-09-12T08:18:26;14.65;;;8.88;;
77262;SDS011;66373;52.334;4.806;2023-09-12T08:20:55;11.38;;;7.55;;
77262;SDS011;66373;52.334;4.806;2023-09-12T08:23:24;10.35;;;7.03;;
77262;SDS011;66373;52.334;4.806;2023-09-12T08:25:52;12.82;;;7.40;;
77262;SDS011;66373;52.334;4.806;2023-09-12T08:28:19;11.60;;;7.90;;
77262;SDS011;66373;52.334;4.806;2023-09-12T08:30:46;12.35;;;7.63;;
77262;SDS011;66373;52.334;4.806;2023-09-12T08:33:14;10.68;;;7.35;;
77262;SDS011;66373;52.334;4.806;2023-09-12T08:35:41;12.50;;;8.48;;
77262;SDS011;66373;52.334;4.806;2023-09-12T08:38:08;10.32;;;7.65;;
77262;SDS011;66373;52.334;4.806;2023-09-12T08:40:37;12.40;;;7.47;;
77262;SDS011;66373;52.334;4.806;2023-09-12T08:43:04;10.80;;;7.57;;
77262;SDS011;66373;52.334;4.806;2023-09-12T08:45:33;13.32;;;8.32;;
77262;SDS011;66373;52.334;4.806;2023-09-12T08:48:05;13.40;;;8.23;;
77262;SDS011;66373;52.334;4.806;2023-09-12T08:50:34;10.70;;;7.18;;
77262;SDS011;66373;52.334;4.806;2023-09-12T08:53:02;13.02;;;8.00;;
77262;SDS011;66373;52.334;4.806;2023-09-12T08:55:29;9.85;;;6.55;;
77262;SDS011;66373;52.334;4.806;2023-09-12T08:58:02;12.30;;;7.32;;
77262;SDS011;66373;52.334;4.806;2023-09-12T09:00:31;11.70;;;7.22;;
77262;SDS011;66373;52.334;4.806;2023-09-12T09:02:59;12.27;;;7.43;;
77262;SDS011;66373;52.334;4.806;2023-09-12T09:05:28;9.18;;;7.10;;
77262;SDS011;66373;52.334;4.806;2023-09-12T09:07:57;15.70;;;7.60;;
77262;SDS011;66373;52.334;4.806;2023-09-12T09:10:27;12.60;;;7.30;;
77262;SDS011;66373;52.334;4.806;2023-09-12T09:12:57;11.35;;;7.10;;
77262;SDS011;66373;52.334;4.806;2023-09-12T09:15:27;11.15;;;6.88;;
77262;SDS011;66373;52.334;4.806;2023-09-12T09:17:55;9.40;;;6.57;;
77262;SDS011;66373;52.334;4.806;2023-09-12T09:20:26;11.27;;;6.53;;
77262;SDS011;66373;52.334;4.806;2023-09-12T09:22:58;12.15;;;6.35;;
77262;SDS011;66373;52.334;4.806;2023-09-12T09:25:30;10.75;;;6.03;;
77262;SDS011;66373;52.334;4.806;2023-09-12T09:27:58;8.38;;;6.07;;
77262;SDS011;66373;52.334;4.806;2023-09-12T09:30:40;9.68;;;6.10;;
77262;SDS011;66373;52.334;4.806;2023-09-12T09:33:08;8.05;;;5.97;;
77262;SDS011;66373;52.334;4.806;2023-09-12T09:35:37;9.05;;;5.55;;
77262;SDS011;66373;52.334;4.806;2023-09-12T09:38:07;9.95;;;6.10;;
77262;SDS011;66373;52.334;4.806;2023-09-12T09:40:35;8.30;;;5.50;;
77262;SDS011;66373;52.334;4.806;2023-09-12T09:43:05;8.07;;;5.40;;
77262;SDS011;66373;52.334;4.806;2023-09-12T09:45:33;6.53;;;5.30;;
77262;SDS011;66373;52.334;4.806;2023-09-12T09:48:17;7.80;;;5.25;;
77262;SDS011;66373;52.334;4.806;2023-09-12T09:50:45;7.72;;;5.15;;
77262;SDS011;66373;52.334;4.806;2023-09-12T09:53:12;8.30;;;5.00;;
77262;SDS011;66373;52.334;4.806;2023-09-12T09:55:41;7.53;;;5.22;;
77262;SDS011;66373;52.334;4.806;2023-09-12T09:58:08;6.57;;;4.80;;
77262;SDS011;66373;52.334;4.806;2023-09-12T10:00:44;5.63;;;5.00;;
77262;SDS011;66373;52.334;4.806;2023-09-12T10:03:15;7.43;;;5.15;;
77262;SDS011;66373;52.334;4.806;2023-09-12T10:05:49;8.13;;;5.03;;
77262;SDS011;66373;52.334;4.806;2023-09-12T10:08:19;7.38;;;5.30;;
77262;SDS011;66373;52.334;4.806;2023-09-12T10:10:50;7.32;;;5.13;;
77262;SDS011;66373;52.334;4.806;2023-09-12T10:13:19;7.63;;;5.15;;
77262;SDS011;66373;52.334;4.806;2023-09-12T10:15:53;6.85;;;4.90;;
77262;SDS011;66373;52.334;4.806;2023-09-12T10:18:24;6.28;;;4.75;;
77262;SDS011;66373;52.334;4.806;2023-09-12T10:20:57;7.97;;;5.47;;
77262;SDS011;66373;52.334;4.806;2023-09-12T10:23:32;6.78;;;5.03;;
77262;SDS011;66373;52.334;4.806;2023-09-12T10:26:08;6.97;;;5.10;;
77262;SDS011;66373;52.334;4.806;2023-09-12T10:28:38;4.95;;;4.47;;
77262;SDS011;66373;52.334;4.806;2023-09-12T10:31:11;8.65;;;4.82;;
77262;SDS011;66373;52.334;4.806;2023-09-12T10:33:39;7.15;;;4.65;;
77262;SDS011;66373;52.334;4.806;2023-09-12T10:36:08;6.43;;;4.65;;
77262;SDS011;66373;52.334;4.806;2023-09-12T10:38:36;6.70;;;4.78;;
77262;SDS011;66373;52.334;4.806;2023-09-12T10:41:10;7.57;;;5.03;;
77262;SDS011;66373;52.334;4.806;2023-09-12T10:43:39;7.75;;;4.60;;
77262;SDS011;66373;52.334;4.806;2023-09-12T10:46:07;6.97;;;4.68;;
77262;SDS011;66373;52.334;4.806;2023-09-12T10:48:38;6.70;;;4.47;;
77262;SDS011;66373;52.334;4.806;2023-09-12T10:51:08;5.78;;;5.10;;
77262;SDS011;66373;52.334;4.806;2023-09-12T10:53:38;5.97;;;4.85;;
77262;SDS011;66373;52.334;4.806;2023-09-12T10:56:15;6.32;;;4.05;;
77262;SDS011;66373;52.334;4.806;2023-09-12T11:01:43;7.15;;;4.28;;
77262;SDS011;66373;52.334;4.806;2023-09-12T11:06:59;8.95;;;4.47;;
77262;SDS011;66373;52.334;4.806;2023-09-12T11:09:27;6.03;;;4.38;;
77262;SDS011;66373;52.334;4.806;2023-09-12T11:11:57;5.82;;;4.15;;
77262;SDS011;66373;52.334;4.806;2023-09-12T11:14:28;4.68;;;3.97;;
77262;SDS011;66373;52.334;4.806;2023-09-12T11:19:52;5.95;;;4.03;;
77262;SDS011;66373;52.334;4.806;2023-09-12T11:22:21;6.07;;;4.13;;
77262;SDS011;66373;52.334;4.806;2023-09-12T11:24:50;4.28;;;3.88;;
77262;SDS011;66373;52.334;4.806;2023-09-12T11:27:17;5.55;;;3.85;;
77262;SDS011;66373;52.334;4.806;2023-09-12T11:29:45;5.20;;;3.95;;
77262;SDS011;66373;52.334;4.806;2023-09-12T11:32:27;4.40;;;3.85;;
77262;SDS011;66373;52.334;4.806;2023-09-12T11:34:59;5.20;;;3.90;;
77262;SDS011;66373;52.334;4.806;2023-09-12T11:37:32;5.95;;;3.75;;
77262;SDS011;66373;52.334;4.806;2023-09-12T11:40:02;5.05;;;3.58;;
77262;SDS011;66373;52.334;4.806;2023-09-12T11:42:44;5.13;;;3.70;;
77262;SDS011;66373;52.334;4.806;2023-09-12T11:45:15;4.28;;;3.88;;
77262;SDS011;66373;52.334;4.806;2023-09-12T11:47:48;4.60;;;3.80;;
77262;SDS011;66373;52.334;4.806;2023-09-12T11:50:27;4.22;;;3.63;;
77262;SDS011;66373;52.334;4.806;2023-09-12T11:52:58;5.95;;;3.70;;
77262;SDS011;66373;52.334;4.806;2023-09-12T11:55:27;6.10;;;3.55;;
77262;SDS011;66373;52.334;4.806;2023-09-12T11:58:00;7.18;;;3.97;;
77262;SDS011;66373;52.334;4.806;2023-09-12T12:00:28;4.20;;;3.40;;
77262;SDS011;66373;52.334;4.806;2023-09-12T12:02:59;5.30;;;3.60;;
77262;SDS011;66373;52.334;4.806;2023-09-12T12:07:54;6.22;;;3.45;;
77262;SDS011;66373;52.334;4.806;2023-09-12T12:10:23;6.45;;;3.58;;
77262;SDS011;66373;52.334;4.806;2023-09-12T12:12:52;4.47;;;3.70;;
77262;SDS011;66373;52.334;4.806;2023-09-12T12:15:20;5.97;;;3.40;;
77262;SDS011;66373;52.334;4.806;2023-09-12T12:17:54;8.30;;;3.80;;
77262;SDS011;66373;52.334;4.806;2023-09-12T12:20:24;6.07;;;3.20;;
77262;SDS011;66373;52.334;4.806;2023-09-12T12:25:21;4.50;;;3.17;;
77262;SDS011;66373;52.334;4.806;2023-09-12T12:27:51;3.88;;;3.47;;
77262;SDS011;66373;52.334;4.806;2023-09-12T12:30:18;5.03;;;3.17;;
77262;SDS011;66373;52.334;4.806;2023-09-12T12:32:46;4.28;;;3.35;;
77262;SDS011;66373;52.334;4.806;2023-09-12T12:35:18;3.38;;;3.00;;
77262;SDS011;66373;52.334;4.806;2023-09-12T12:37:49;4.32;;;3.10;;
77262;SDS011;66373;52.334;4.806;2023-09-12T12:40:17;4.93;;;3.42;;
77262;SDS011;66373;52.334;4.806;2023-09-12T12:42:57;4.57;;;3.05;;
77262;SDS011;66373;52.334;4.806;2023-09-12T12:45:32;4.00;;;3.17;;
77262;SDS011;66373;52.334;4.806;2023-09-12T12:48:00;4.20;;;3.20;;
77262;SDS011;66373;52.334;4.806;2023-09-12T12:50:27;4.85;;;3.28;;
77262;SDS011;66373;52.334;4.806;2023-09-12T12:52:56;4.53;;;3.15;;
77262;SDS011;66373;52.334;4.806;2023-09-12T12:55:25;4.53;;;3.35;;
77262;SDS011;66373;52.334;4.806;2023-09-12T12:57:52;3.88;;;2.67;;
77262;SDS011;66373;52.334;4.806;2023-09-12T13:00:19;5.28;;;2.80;;
77262;SDS011;66373;52.334;4.806;2023-09-12T13:02:49;5.95;;;3.05;;
77262;SDS011;66373;52.334;4.806;2023-09-12T13:05:20;6.38;;;3.30;;
77262;SDS011;66373;52.334;4.806;2023-09-12T13:07:51;4.43;;;2.95;;
77262;SDS011;66373;52.334;4.806;2023-09-12T13:10:19;6.28;;;3.17;;
77262;SDS011;66373;52.334;4.806;2023-09-12T13:12:47;3.72;;;2.85;;
77262;SDS011;66373;52.334;4.806;2023-09-12T13:15:15;5.70;;;3.08;;
77262;SDS011;66373;52.334;4.806;2023-09-12T13:17:51;4.30;;;2.95;;
77262;SDS011;66373;52.334;4.806;2023-09-12T13:20:18;3.20;;;2.90;;
77262;SDS011;66373;52.334;4.806;2023-09-12T13:22:45;4.28;;;2.92;;
77262;SDS011;66373;52.334;4.806;2023-09-12T13:25:22;6.60;;;3.03;;
77262;SDS011;66373;52.334;4.806;2023-09-12T13:27:49;6.88;;;3.17;;
77262;SDS011;66373;52.334;4.806;2023-09-12T13:30:16;4.15;;;2.90;;
77262;SDS011;66373;52.334;4.806;2023-09-12T13:32:46;3.13;;;2.60;;
77262;SDS011;66373;52.334;4.806;2023-09-12T13:35:13;5.18;;;3.17;;
77262;SDS011;66373;52.334;4.806;2023-09-12T13:37:40;3.25;;;3.00;;
77262;SDS011;66373;52.334;4.806;2023-09-12T13:40:08;4.80;;;2.90;;
77262;SDS011;66373;52.334;4.806;2023-09-12T13:42:38;5.63;;;3.13;;
77262;SDS011;66373;52.334;4.806;2023-09-12T13:45:42;4.57;;;3.10;;
77262;SDS011;66373;52.334;4.806;2023-09-12T13:48:09;3.30;;;3.00;;
77262;SDS011;66373;52.334;4.806;2023-09-12T13:50:37;4.30;;;3.58;;
77262;SDS011;66373;52.334;4.806;2023-09-12T13:53:05;3.97;;;3.30;;
77262;SDS011;66373;52.334;4.806;2023-09-12T13:55:32;4.95;;;3.50;;
77262;SDS011;66373;52.334;4.806;2023-09-12T13:58:03;4.75;;;3.67;;
77262;SDS011;66373;52.334;4.806;2023-09-12T14:00:31;5.65;;;3.70;;
77262;SDS011;66373;52.334;4.806;2023-09-12T14:02:59;5.32;;;3.35;;
77262;SDS011;66373;52.334;4.806;2023-09-12T14:05:26;4.32;;;3.45;;
77262;SDS011;66373;52.334;4.806;2023-09-12T14:07:54;6.28;;;3.78;;
77262;SDS011;66373;52.334;4.806;2023-09-12T14:10:21;4.00;;;3.50;;
77262;SDS011;66373;52.334;4.806;2023-09-12T14:12:48;4.32;;;3.60;;
77262;SDS011;66373;52.334;4.806;2023-09-12T14:15:16;5.15;;;3.90;;
77262;SDS011;66373;52.334;4.806;2023-09-12T14:17:43;9.80;;;4.07;;
77262;SDS011;66373;52.334;4.806;2023-09-12T14:20:10;4.90;;;3.60;;
77262;SDS011;66373;52.334;4.806;2023-09-12T14:22:41;5.18;;;3.60;;
77262;SDS011;66373;52.334;4.806;2023-09-12T14:25:09;4.70;;;3.85;;
77262;SDS011;66373;52.334;4.806;2023-09-12T14:27:40;6.35;;;3.95;;
77262;SDS011;66373;52.334;4.806;2023-09-12T14:30:09;3.80;;;3.50;;
77262;SDS011;66373;52.334;4.806;2023-09-12T14:32:39;3.70;;;3.30;;
77262;SDS011;66373;52.334;4.806;2023-09-12T14:35:06;4.95;;;3.40;;
77262;SDS011;66373;52.334;4.806;2023-09-12T14:37:35;6.10;;;3.90;;
77262;SDS011;66373;52.334;4.806;2023-09-12T14:40:03;4.40;;;3.60;;
77262;SDS011;66373;52.334;4.806;2023-09-12T14:42:31;4.10;;;3.30;;
77262;SDS011;66373;52.334;4.806;2023-09-12T14:44:58;5.47;;;3.38;;
77262;SDS011;66373;52.334;4.806;2023-09-12T14:47:25;4.75;;;3.55;;
77262;SDS011;66373;52.334;4.806;2023-09-12T14:49:56;6.78;;;3.53;;
77262;SDS011;66373;52.334;4.806;2023-09-12T14:52:23;6.38;;;3.67;;
77262;SDS011;66373;52.334;4.806;2023-09-12T14:54:52;4.43;;;3.42;;
77262;SDS011;66373;52.334;4.806;2023-09-12T14:57:19;3.67;;;3.38;;
77262;SDS011;66373;52.334;4.806;2023-09-12T14:59:48;5.10;;;3.58;;
77262;SDS011;66373;52.334;4.806;2023-09-12T15:02:17;4.45;;;3.15;;
77262;SDS011;66373;52.334;4.806;2023-09-12T15:04:43;5.63;;;3.45;;
77262;SDS011;66373;52.334;4.806;2023-09-12T15:07:12;3.85;;;3.05;;
77262;SDS011;66373;52.334;4.806;2023-09-12T15:09:39;3.80;;;3.13;;
77262;SDS011;66373;52.334;4.806;2023-09-12T15:12:07;5.68;;;3.30;;